createdAt,value
2023-01-03T00:00:45.647Z,101656.22
2023-01-03T00:03:47.194Z,101647.50
2023-01-03T00:06:51.669Z,101658.91
2023-01-03T00:09:53.083Z,101660.75
2023-01-03T00:12:54.474Z,101659.91
2023-01-03T00:15:56.453Z,101668.69
2023-01-03T00:18:57.910Z,101673.97
2023-01-03T00:21:59.322Z,101672.25
2023-01-03T00:25:00.825Z,101665.25
2023-01-03T00:28:02.927Z,101669.69
2023-01-03T00:31:09.315Z,101674.88
2023-01-03T00:34:11.658Z,101679.25
2023-01-03T00:37:14.320Z,101682.75
2023-01-03T00:40:15.742Z,101681.88
2023-01-03T00:43:29.192Z,101682.78
2023-01-03T00:46:30.716Z,101684.56
2023-01-03T00:49:32.306Z,101691.56
2023-01-03T00:52:33.685Z,101688.03
2023-01-03T00:55:35.647Z,101691.56
2023-01-03T00:58:37.694Z,101693.31
2023-01-03T01:01:48.145Z,101682.78
2023-01-03T01:04:49.798Z,101681.03
2023-01-03T01:07:52.235Z,101684.53
2023-01-03T01:11:02.417Z,101682.75
2023-01-03T01:14:04.548Z,101674.91
2023-01-03T01:17:08.088Z,101679.31
2023-01-03T01:20:09.666Z,101686.31
2023-01-03T01:23:11.072Z,101689.84
2023-01-03T01:26:15.556Z,101696.00
2023-01-03T01:29:17.995Z,101696.84
2023-01-03T01:32:19.413Z,101699.50
2023-01-03T01:35:20.867Z,101706.50
2023-01-03T01:38:22.288Z,101710.00
2023-01-03T01:41:43.336Z,101712.63
2023-01-03T01:44:58.384Z,101709.13
2023-01-03T01:48:06.127Z,101713.50
2023-01-03T01:51:09.668Z,101709.13
2023-01-03T01:54:11.435Z,101705.63
2023-01-03T01:57:18.231Z,101705.63
2023-01-03T02:00:20.353Z,101707.38
2023-01-03T02:03:21.843Z,101705.63
2023-01-03T02:06:24.691Z,101710.00
2023-01-03T02:09:26.184Z,101710.00
2023-01-03T02:12:58.906Z,101712.63
2023-01-03T02:16:06.506Z,101714.38
2023-01-03T02:19:10.809Z,101721.38
2023-01-03T02:22:39.612Z,101712.63
2023-01-03T02:26:07.374Z,101710.00
2023-01-03T02:29:27.421Z,101711.75
2023-01-03T02:32:35.979Z,101709.13
2023-01-03T02:35:50.929Z,101712.59
2023-01-03T02:39:23.853Z,101712.63
2023-01-03T02:42:57.999Z,101709.09
2023-01-03T02:46:13.704Z,101710.84
2023-01-03T02:49:30.568Z,101706.50
2023-01-03T02:52:32.476Z,101717.84
2023-01-03T02:55:35.356Z,101716.94
2023-01-03T02:58:39.189Z,101717.81
2023-01-03T03:01:46.132Z,101719.53
2023-01-03T03:04:52.497Z,101729.13
2023-01-03T03:07:53.993Z,101731.69
2023-01-03T03:11:13.913Z,101741.25
2023-01-03T03:14:28.741Z,101733.44
2023-01-03T03:17:30.880Z,101730.81
2023-01-03T03:20:50.652Z,101736.94
2023-01-03T03:24:26.087Z,101732.56
2023-01-03T03:27:50.214Z,101736.06
2023-01-03T03:30:55.019Z,101737.81
2023-01-03T03:34:08.425Z,101733.47
2023-01-03T03:37:16.707Z,101742.16
2023-01-03T03:40:36.860Z,101747.44
2023-01-03T03:44:06.759Z,101746.53
2023-01-03T03:47:34.511Z,101742.13
2023-01-03T03:51:00.162Z,101742.16
2023-01-03T03:54:06.012Z,101738.66
2023-01-03T03:57:13.862Z,101742.88
2023-01-03T04:00:21.435Z,101741.94
2023-01-03T04:03:24.442Z,101746.31
2023-01-03T04:06:31.178Z,101749.00
2023-01-03T04:09:32.590Z,101750.75
2023-01-03T04:12:34.004Z,101745.44
2023-01-03T04:15:36.156Z,101752.38
2023-01-03T04:18:37.564Z,101756.72
2023-01-03T04:21:39.019Z,101743.59
2023-01-03T04:24:40.443Z,101747.13
2023-01-03T04:27:41.813Z,101748.75
2023-01-03T04:30:43.849Z,101752.25
2023-01-03T04:33:46.247Z,101746.22
2023-01-03T04:36:47.624Z,101757.38
2023-01-03T04:39:49.037Z,101751.28
2023-01-03T04:43:09.044Z,101753.94
2023-01-03T04:46:10.540Z,101757.44
2023-01-03T04:49:11.973Z,101770.22
2023-01-03T04:52:15.483Z,101765.88
2023-01-03T04:55:17.046Z,101770.28
2023-01-03T04:58:19.338Z,101766.88
2023-01-03T05:01:22.038Z,101769.56
2023-01-03T05:04:23.597Z,101769.69
2023-01-03T05:07:27.620Z,101777.41
2023-01-03T05:10:29.011Z,101760.75
2023-01-03T05:13:30.587Z,101763.41
2023-01-03T05:16:32.024Z,101764.22
2023-01-03T05:19:34.346Z,101763.28
2023-01-03T05:22:54.116Z,101767.69
2023-01-03T05:25:55.508Z,101774.75
2023-01-03T05:28:57.638Z,101775.66
2023-01-03T05:31:59.132Z,101788.63
2023-01-03T05:35:00.623Z,101794.66
2023-01-03T05:38:02.041Z,101791.13
2023-01-03T05:41:05.941Z,101793.72
2023-01-03T05:44:07.644Z,101797.25
2023-01-03T05:47:09.322Z,101793.72
2023-01-03T05:50:10.822Z,101803.13
2023-01-03T05:53:12.292Z,101798.75
2023-01-03T05:56:14.694Z,101803.19
2023-01-03T05:59:16.141Z,101799.72
2023-01-03T06:02:17.684Z,101803.19
2023-01-03T06:05:19.131Z,101800.53
2023-01-03T06:08:20.727Z,101805.63
2023-01-03T06:11:22.463Z,101802.94
2023-01-03T06:14:25.119Z,101803.06
2023-01-03T06:17:45.298Z,101813.59
2023-01-03T06:20:46.830Z,101800.41
2023-01-03T06:23:48.316Z,101806.50
2023-01-03T06:26:49.858Z,101813.47
2023-01-03T06:29:51.249Z,101817.00
2023-01-03T06:32:53.227Z,101807.44
2023-01-03T06:35:54.614Z,101813.53
2023-01-03T06:38:56.024Z,101810.88
2023-01-03T06:41:57.424Z,101814.47
2023-01-03T06:45:17.937Z,101814.53
2023-01-03T06:48:37.684Z,101811.13
2023-01-03T06:51:58.419Z,101810.38
2023-01-03T06:54:59.931Z,101811.31
2023-01-03T06:58:02.564Z,101806.13
2023-01-03T07:01:04.965Z,101803.50
2023-01-03T07:04:06.619Z,101807.00
2023-01-03T07:07:08.075Z,101813.13
2023-01-03T07:10:09.469Z,101816.66
2023-01-03T07:13:30.772Z,101817.47
2023-01-03T07:16:35.074Z,101837.41
2023-01-03T07:19:36.497Z,101839.03
2023-01-03T07:22:37.889Z,101844.25
2023-01-03T07:25:41.287Z,101854.53
2023-01-03T07:28:42.725Z,101851.94
2023-01-03T07:31:44.177Z,101853.72
2023-01-03T07:34:45.620Z,101859.03
2023-01-03T07:37:47.024Z,101859.06
2023-01-03T07:40:48.388Z,101860.78
2023-01-03T07:43:49.816Z,101862.53
2023-01-03T07:46:51.267Z,101874.66
2023-01-03T07:49:52.698Z,101867.69
2023-01-03T07:52:54.088Z,101877.34
2023-01-03T07:56:07.704Z,101894.84
2023-01-03T07:59:12.365Z,101880.97
2023-01-03T08:02:13.919Z,101884.53
2023-01-03T08:05:16.612Z,101884.47
2023-01-03T08:08:18.050Z,101888.84
2023-01-03T08:11:38.213Z,101884.38
2023-01-03T08:14:39.586Z,101892.22
2023-01-03T08:17:41.083Z,101898.38
2023-01-03T08:20:43.110Z,101906.31
2023-01-03T08:23:44.594Z,101912.50
2023-01-03T08:26:45.979Z,101913.41
2023-01-03T08:29:47.867Z,101909.97
2023-01-03T08:32:49.413Z,101917.84
2023-01-03T08:35:55.510Z,101914.50
2023-01-03T08:39:02.229Z,101925.88
2023-01-03T08:42:07.381Z,101917.00
2023-01-03T08:45:13.817Z,101916.13
2023-01-03T08:48:17.131Z,101924.84
2023-01-03T08:51:18.545Z,101924.00
2023-01-03T08:54:20.051Z,101936.28
2023-01-03T08:57:21.801Z,101937.09
2023-01-03T09:00:23.206Z,101939.66
2023-01-03T09:03:24.719Z,101927.56
2023-01-03T09:06:26.298Z,101940.72
2023-01-03T09:09:27.743Z,101945.06
2023-01-03T09:12:29.281Z,101952.97
2023-01-03T09:15:30.880Z,101955.63
2023-01-03T09:18:33.324Z,101961.00
2023-01-03T09:21:34.790Z,101961.13
2023-01-03T09:24:36.215Z,101963.75
2023-01-03T09:27:37.692Z,101960.34
2023-01-03T09:30:39.607Z,101963.09
2023-01-03T09:33:41.173Z,101973.66
2023-01-03T09:36:42.660Z,101965.78
2023-01-03T09:39:44.052Z,101964.06
2023-01-03T09:43:04.056Z,101956.22
2023-01-03T09:46:06.488Z,101956.31
2023-01-03T09:49:08.024Z,101960.72
2023-01-03T09:52:37.088Z,101962.50
2023-01-03T09:56:12.341Z,101959.03
2023-01-03T09:59:35.605Z,101962.59
2023-01-03T10:03:33.093Z,101957.38
2023-01-03T10:06:59.407Z,101943.44
2023-01-03T10:10:14.096Z,101945.19
2023-01-03T10:13:46.648Z,101939.94
2023-01-03T10:17:10.720Z,101945.25
2023-01-03T10:20:42.794Z,101946.22
2023-01-03T10:23:47.805Z,101941.88
2023-01-03T10:26:59.502Z,101945.44
2023-01-03T10:30:04.722Z,101952.47
2023-01-03T10:33:11.997Z,101944.56
2023-01-03T10:36:15.579Z,101936.69
2023-01-03T10:39:28.901Z,101947.22
2023-01-03T10:42:33.979Z,101943.72
2023-01-03T10:45:51.106Z,101938.44
2023-01-03T10:52:22.856Z,101929.63
2023-01-03T10:55:26.488Z,101924.38
2023-01-03T10:58:35.940Z,101923.44
2023-01-03T11:01:38.688Z,101917.19
2023-01-03T11:04:41.200Z,101930.28
2023-01-03T11:07:53.266Z,101922.09
2023-01-03T11:10:57.809Z,101928.16
2023-01-03T11:14:17.874Z,101927.25
2023-01-03T11:17:21.422Z,101922.91
2023-01-03T11:20:39.865Z,101914.97
2023-01-03T11:23:58.088Z,101922.88
2023-01-03T11:27:39.712Z,101919.41
2023-01-03T11:31:25.717Z,101909.41
2023-01-03T11:35:20.823Z,101909.09
2023-01-03T11:38:26.027Z,101900.88
2023-01-03T11:41:48.357Z,101899.63
2023-01-03T11:45:18.392Z,101899.56
2023-01-03T11:48:47.049Z,101895.09
2023-01-03T11:52:07.341Z,101886.91
2023-01-03T11:55:46.005Z,101875.31
2023-01-03T11:58:58.770Z,101874.25
2023-01-03T12:02:25.171Z,101875.31
2023-01-03T12:05:47.016Z,101869.22
2023-01-03T12:09:10.455Z,101874.41
2023-01-03T12:12:25.160Z,101870.03
2023-01-03T12:15:42.033Z,101868.84
2023-01-03T12:19:08.431Z,101868.63
2023-01-03T12:22:37.472Z,101869.44
2023-01-03T12:25:44.842Z,101871.44
2023-01-03T12:28:56.280Z,101860.78
2023-01-03T12:32:06.653Z,101859.56
2023-01-03T12:35:30.603Z,101865.84
2023-01-03T12:38:38.064Z,101854.66
2023-01-03T12:41:47.741Z,101858.31
2023-01-03T12:44:57.812Z,101847.53
2023-01-03T12:48:11.523Z,101842.31
2023-01-03T12:51:18.249Z,101851.13
2023-01-03T12:54:41.122Z,101846.91
2023-01-03T12:57:50.554Z,101841.75
2023-01-03T13:01:09.129Z,101833.69
2023-01-03T13:04:23.029Z,101833.03
2023-01-03T13:07:29.521Z,101840.81
2023-01-03T13:10:34.419Z,101824.97
2023-01-03T13:13:35.935Z,101824.81
2023-01-03T13:16:42.963Z,101824.66
2023-01-03T13:19:51.535Z,101813.56
2023-01-03T13:22:58.364Z,101814.03
2023-01-03T13:26:05.727Z,101815.84
2023-01-03T13:29:35.171Z,101815.28
2023-01-03T13:32:50.119Z,101812.75
2023-01-03T13:35:58.017Z,101799.66
2023-01-03T13:39:00.555Z,101807.13
2023-01-03T13:42:02.019Z,101810.75
2023-01-03T13:45:15.698Z,101801.25
2023-01-03T13:48:29.767Z,101804.28
2023-01-03T13:51:40.275Z,101808.16
2023-01-03T13:54:58.806Z,101805.63
2023-01-03T13:58:00.553Z,101800.47
2023-01-03T14:01:06.559Z,101811.84
2023-01-03T14:04:29.827Z,101804.66
2023-01-03T14:07:37.331Z,101800.41
2023-01-03T14:10:57.003Z,101799.50
2023-01-03T14:14:12.655Z,101793.38
2023-01-03T14:17:17.652Z,101797.75
2023-01-03T14:20:24.293Z,101791.69
2023-01-03T14:26:48.489Z,101791.78
2023-01-03T14:29:52.899Z,101794.47
2023-01-03T14:32:54.413Z,101790.81
2023-01-03T14:36:03.843Z,101782.97
2023-01-03T14:39:05.339Z,101786.56
2023-01-03T14:42:16.159Z,101790.09
2023-01-03T14:45:19.488Z,101797.19
2023-01-03T14:48:21.930Z,101805.13
2023-01-03T14:51:23.460Z,101798.16
2023-01-03T14:54:26.922Z,101806.22
2023-01-03T14:57:29.121Z,101806.34
2023-01-03T15:00:35.057Z,101802.97
2023-01-03T15:03:40.596Z,101806.47
2023-01-03T15:07:13.061Z,101807.44
2023-01-03T15:10:18.612Z,101814.63
2023-01-03T15:13:29.809Z,101813.88
2023-01-03T15:16:37.353Z,101807.75
2023-01-03T15:19:46.204Z,101813.88
2023-01-03T15:22:49.567Z,101814.81
2023-01-03T15:25:53.006Z,101812.25
2023-01-03T15:29:20.531Z,101815.81
2023-01-03T15:32:22.057Z,101822.00
2023-01-03T15:35:31.623Z,101831.72
2023-01-03T15:38:37.236Z,101834.41
2023-01-03T15:42:34.580Z,101843.28
2023-01-03T15:45:35.360Z,101849.50
2023-01-03T15:48:37.008Z,101857.41
2023-01-03T15:51:38.625Z,101853.88
2023-01-03T15:54:41.789Z,101851.28
2023-01-03T15:57:50.657Z,101846.09
2023-01-03T16:00:52.972Z,101851.38
2023-01-03T16:03:54.678Z,101856.69
2023-01-03T16:06:56.230Z,101856.72
2023-01-03T16:09:57.697Z,101851.50
2023-01-03T16:12:59.089Z,101860.31
2023-01-03T16:16:00.789Z,101857.72
2023-01-03T16:19:04.155Z,101856.84
2023-01-03T16:25:27.793Z,101850.75
2023-01-03T16:28:29.446Z,101849.88
2023-01-03T16:31:33.083Z,101855.16
2023-01-03T16:34:34.624Z,101864.81
2023-01-03T16:37:36.005Z,101865.72
2023-01-03T16:40:37.383Z,101865.72
2023-01-03T16:43:38.951Z,101865.72
2023-01-03T16:46:40.414Z,101866.59
2023-01-03T16:49:43.559Z,101856.06
2023-01-03T16:52:55.529Z,101866.59
2023-01-03T16:55:57.098Z,101872.72
2023-01-03T16:58:58.513Z,101883.25
2023-01-03T17:02:00.125Z,101878.88
2023-01-03T17:05:01.728Z,101880.63
2023-01-03T17:08:16.667Z,101878.88
2023-01-03T17:11:18.380Z,101880.66
2023-01-03T17:14:21.924Z,101878.91
2023-01-03T17:17:23.760Z,101880.66
2023-01-03T17:20:25.330Z,101881.56
2023-01-03T17:23:32.256Z,101883.25
2023-01-03T17:26:35.885Z,101885.88
2023-01-03T17:29:38.861Z,101882.41
2023-01-03T17:32:40.273Z,101885.88
2023-01-03T17:35:43.439Z,101880.66
2023-01-03T17:38:45.258Z,101886.75
2023-01-03T17:42:05.636Z,101892.00
2023-01-03T17:45:30.139Z,101904.25
2023-01-03T17:48:50.159Z,101901.63
2023-01-03T17:51:54.948Z,101913.03
2023-01-03T17:54:56.505Z,101909.53
2023-01-03T17:58:01.214Z,101913.91
2023-01-03T18:01:03.276Z,101912.16
2023-01-03T18:04:04.909Z,101909.53
2023-01-03T18:07:06.457Z,101917.44
2023-01-03T18:10:15.259Z,101920.09
2023-01-03T18:13:31.735Z,101913.94
2023-01-03T18:16:33.191Z,101919.19
2023-01-03T18:19:34.683Z,101925.31
2023-01-03T18:22:36.786Z,101919.19
2023-01-03T18:25:38.198Z,101923.56
2023-01-03T18:28:39.641Z,101928.84
2023-01-03T18:31:42.207Z,101927.97
2023-01-03T18:34:43.654Z,101927.97
2023-01-03T18:37:46.107Z,101926.19
2023-01-03T18:40:47.532Z,101923.56
2023-01-03T18:43:48.925Z,101924.47
2023-01-03T18:46:51.844Z,101921.81
2023-01-03T18:49:53.684Z,101922.69
2023-01-03T18:52:56.359Z,101911.31
2023-01-03T18:55:57.853Z,101920.03
2023-01-03T18:59:20.929Z,101914.78
2023-01-03T19:02:22.719Z,101926.16
2023-01-03T19:05:24.358Z,101922.66
2023-01-03T19:08:30.687Z,101916.50
2023-01-03T19:11:35.790Z,101920.03
2023-01-03T19:14:39.817Z,101919.13
2023-01-03T19:17:45.013Z,101928.75
2023-01-03T19:20:47.230Z,101920.88
2023-01-03T19:23:58.608Z,101922.63
2023-01-03T19:27:10.274Z,101919.13
2023-01-03T19:30:22.269Z,101923.50
2023-01-03T19:33:23.776Z,101929.59
2023-01-03T19:36:25.215Z,101922.56
2023-01-03T19:39:28.846Z,101920.81
2023-01-03T19:42:48.879Z,101924.31
2023-01-03T19:45:50.385Z,101925.19
2023-01-03T19:48:51.782Z,101921.66
2023-01-03T19:51:53.715Z,101917.31
2023-01-03T19:54:55.217Z,101909.41
2023-01-03T19:57:59.402Z,101912.03
2023-01-03T20:01:00.898Z,101913.81
2023-01-03T20:04:02.456Z,101901.53
2023-01-03T20:07:13.157Z,101902.44
2023-01-03T20:10:17.072Z,101907.63
2023-01-03T20:13:23.323Z,101905.81
2023-01-03T20:16:25.153Z,101904.97
2023-01-03T20:19:27.685Z,101907.56
2023-01-03T20:25:51.439Z,101879.50
2023-01-03T20:28:56.113Z,101889.97
2023-01-03T20:31:57.768Z,101892.56
2023-01-03T20:35:11.929Z,101890.81
2023-01-03T20:38:24.985Z,101893.41
2023-01-03T20:41:36.035Z,101887.22
2023-01-03T20:44:38.057Z,101882.00
2023-01-03T20:47:40.716Z,101877.66
2023-01-03T20:50:42.435Z,101886.38
2023-01-03T20:53:45.821Z,101879.25
2023-01-03T20:56:49.332Z,101866.13
2023-01-03T20:59:50.755Z,101867.91
2023-01-03T21:02:53.019Z,101867.88
2023-01-03T21:05:56.087Z,101864.31
2023-01-03T21:08:57.998Z,101871.28
2023-01-03T21:11:59.785Z,101871.25
2023-01-03T21:15:01.184Z,101867.72
2023-01-03T21:18:03.663Z,101866.00
2023-01-03T21:21:06.659Z,101862.50
2023-01-03T21:24:10.283Z,101858.13
2023-01-03T21:27:11.784Z,101861.56
2023-01-03T21:30:14.560Z,101859.81
2023-01-03T21:33:19.062Z,101864.13
2023-01-03T21:36:29.279Z,101858.81
2023-01-03T21:39:30.662Z,101854.47
2023-01-03T21:42:50.450Z,101857.13
2023-01-03T21:45:54.786Z,101855.38
2023-01-03T21:48:56.797Z,101847.50
2023-01-03T21:51:58.245Z,101845.66
2023-01-03T21:54:59.635Z,101839.50
2023-01-03T21:58:01.029Z,101842.97
2023-01-03T22:01:14.594Z,101844.66
2023-01-03T22:04:16.068Z,101844.59
2023-01-03T22:07:17.442Z,101835.81
2023-01-03T22:10:19.322Z,101840.19
2023-01-03T22:13:20.759Z,101841.06
2023-01-03T22:16:22.376Z,101838.41
2023-01-03T22:19:24.103Z,101836.72
2023-01-03T22:22:25.599Z,101830.53
2023-01-03T22:25:26.988Z,101807.84
2023-01-03T22:28:35.804Z,101809.56
2023-01-03T22:31:37.195Z,101817.34
2023-01-03T22:34:39.099Z,101818.91
2023-01-03T22:37:40.756Z,101836.31
2023-01-03T22:40:42.135Z,101839.84
2023-01-03T22:43:44.942Z,101840.78
2023-01-03T22:46:46.311Z,101841.72
2023-01-03T22:49:47.738Z,101840.00
2023-01-03T22:52:49.124Z,101838.25
2023-01-03T22:55:50.496Z,101840.81
2023-01-03T22:58:51.900Z,101839.97
2023-01-03T23:01:53.616Z,101846.13
2023-01-03T23:04:55.232Z,101853.16
2023-01-03T23:07:56.630Z,101845.34
2023-01-03T23:11:33.503Z,101839.25
2023-01-03T23:14:35.952Z,101830.59
2023-01-03T23:17:56.105Z,101833.25
2023-01-03T23:21:03.161Z,101828.88
2023-01-03T23:24:05.070Z,101820.16
2023-01-03T23:27:06.729Z,101814.03
2023-01-03T23:30:08.935Z,101816.66
2023-01-03T23:33:10.346Z,101812.31
2023-01-03T23:36:13.441Z,101803.63
2023-01-03T23:39:17.239Z,101789.63
2023-01-03T23:42:18.700Z,101790.50
2023-01-03T23:45:20.520Z,101789.66
2023-01-03T23:48:21.938Z,101790.50
2023-01-03T23:51:24.092Z,101781.78
2023-01-03T23:54:25.587Z,101767.84
2023-01-03T23:57:26.985Z,101755.59
